sensor_id;sensor_type;location;lat;lon;timestamp;temperature;humidity
12557;DHT22;6344;49.932;8.308;2022-11-09T00:00:22;11.50;99.90
12557;DHT22;6344;49.932;8.308;2022-11-09T00:02:53;11.60;99.90
12557;DHT22;6344;49.932;8.308;2022-11-09T00:05:26;11.70;99.90
12557;DHT22;6344;49.932;8.308;2022-11-09T00:07:53;11.80;99.90
12557;DHT22;6344;49.932;8.308;2022-11-09T00:10:22;11.80;99.90
12557;DHT22;6344;49.932;8.308;2022-11-09T00:12:51;11.70;99.90
12557;DHT22;6344;49.932;8.308;2022-11-09T00:15:25;11.80;99.90
12557;DHT22;6344;49.932;8.308;2022-11-09T00:17:59;11.70;99.90
12557;DHT22;6344;49.932;8.308;2022-11-09T00:20:26;11.60;99.90
12557;DHT22;6344;49.932;8.308;2022-11-09T00:22:56;11.50;99.90
12557;DHT22;6344;49.932;8.308;2022-11-09T00:25:23;11.50;99.90
12557;DHT22;6344;49.932;8.308;2022-11-09T00:27:49;11.50;99.90
12557;DHT22;6344;49.932;8.308;2022-11-09T00:30:16;11.50;99.90
12557;DHT22;6344;49.932;8.308;2022-11-09T00:32:44;11.60;99.90
12557;DHT22;6344;49.932;8.308;2022-11-09T00:35:15;11.60;99.90
12557;DHT22;6344;49.932;8.308;2022-11-09T00:37:43;11.60;99.90
12557;DHT22;6344;49.932;8.308;2022-11-09T00:40:11;11.70;99.90
12557;DHT22;6344;49.932;8.308;2022-11-09T00:42:39;11.70;99.90
12557;DHT22;6344;49.932;8.308;2022-11-09T00:45:09;11.80;99.90
12557;DHT22;6344;49.932;8.308;2022-11-09T00:47:35;11.90;99.90
12557;DHT22;6344;49.932;8.308;2022-11-09T00:50:05;12.00;99.90
12557;DHT22;6344;49.932;8.308;2022-11-09T00:52:33;12.10;99.90
12557;DHT22;6344;49.932;8.308;2022-11-09T00:55:02;12.10;99.90
12557;DHT22;6344;49.932;8.308;2022-11-09T00:57:29;12.10;99.90
12557;DHT22;6344;49.932;8.308;2022-11-09T00:59:57;12.10;99.90
12557;DHT22;6344;49.932;8.308;2022-11-09T01:02:25;12.10;99.90
12557;DHT22;6344;49.932;8.308;2022-11-09T01:04:51;12.20;99.90
12557;DHT22;6344;49.932;8.308;2022-11-09T01:07:18;12.10;99.90
12557;DHT22;6344;49.932;8.308;2022-11-09T01:09:48;12.20;99.90
12557;DHT22;6344;49.932;8.308;2022-11-09T01:12:14;12.20;99.90
12557;DHT22;6344;49.932;8.308;2022-11-09T01:14:44;12.20;99.90
12557;DHT22;6344;49.932;8.308;2022-11-09T01:17:10;12.20;99.90
12557;DHT22;6344;49.932;8.308;2022-11-09T01:19:37;12.20;99.90
12557;DHT22;6344;49.932;8.308;2022-11-09T01:22:04;12.20;99.90
12557;DHT22;6344;49.932;8.308;2022-11-09T01:24:33;12.30;99.90
12557;DHT22;6344;49.932;8.308;2022-11-09T01:27:04;12.30;99.90
12557;DHT22;6344;49.932;8.308;2022-11-09T01:29:30;12.30;99.90
12557;DHT22;6344;49.932;8.308;2022-11-09T01:31:59;12.30;99.90
12557;DHT22;6344;49.932;8.308;2022-11-09T01:34:27;12.20;99.90
12557;DHT22;6344;49.932;8.308;2022-11-09T01:36:53;12.20;99.90
12557;DHT22;6344;49.932;8.308;2022-11-09T01:39:20;12.30;99.90
12557;DHT22;6344;49.932;8.308;2022-11-09T01:41:49;12.30;99.90
12557;DHT22;6344;49.932;8.308;2022-11-09T01:44:20;12.20;99.90
12557;DHT22;6344;49.932;8.308;2022-11-09T01:46:50;12.20;99.90
12557;DHT22;6344;49.932;8.308;2022-11-09T01:49:23;12.20;99.90
12557;DHT22;6344;49.932;8.308;2022-11-09T01:51:59;12.20;99.90
12557;DHT22;6344;49.932;8.308;2022-11-09T01:54:33;12.20;99.90
12557;DHT22;6344;49.932;8.308;2022-11-09T01:57:07;12.20;99.90
12557;DHT22;6344;49.932;8.308;2022-11-09T01:59:47;12.20;99.90
12557;DHT22;6344;49.932;8.308;2022-11-09T02:02:20;12.20;99.90
12557;DHT22;6344;49.932;8.308;2022-11-09T02:04:51;12.30;99.90
12557;DHT22;6344;49.932;8.308;2022-11-09T02:07:27;12.30;99.90
12557;DHT22;6344;49.932;8.308;2022-11-09T02:09:59;12.20;99.90
12557;DHT22;6344;49.932;8.308;2022-11-09T02:12:33;12.20;99.90
12557;DHT22;6344;49.932;8.308;2022-11-09T02:15:07;12.20;99.90
12557;DHT22;6344;49.932;8.308;2022-11-09T02:17:36;12.20;99.90
12557;DHT22;6344;49.932;8.308;2022-11-09T02:20:09;12.10;99.90
12557;DHT22;6344;49.932;8.308;2022-11-09T02:22:36;12.20;99.90
12557;DHT22;6344;49.932;8.308;2022-11-09T02:25:03;12.20;99.90
12557;DHT22;6344;49.932;8.308;2022-11-09T02:27:30;12.20;99.90
12557;DHT22;6344;49.932;8.308;2022-11-09T02:29:59;12.20;99.90
12557;DHT22;6344;49.932;8.308;2022-11-09T02:32:30;12.20;99.90
12557;DHT22;6344;49.932;8.308;2022-11-09T02:34:59;12.10;99.90
12557;DHT22;6344;49.932;8.308;2022-11-09T02:37:34;12.20;99.90
12557;DHT22;6344;49.932;8.308;2022-11-09T02:40:11;12.10;99.90
12557;DHT22;6344;49.932;8.308;2022-11-09T02:42:39;12.00;99.90
12557;DHT22;6344;49.932;8.308;2022-11-09T02:45:09;12.00;99.90
12557;DHT22;6344;49.932;8.308;2022-11-09T02:47:36;12.00;99.90
12557;DHT22;6344;49.932;8.308;2022-11-09T02:50:03;12.00;99.90
12557;DHT22;6344;49.932;8.308;2022-11-09T02:52:32;12.00;99.90
12557;DHT22;6344;49.932;8.308;2022-11-09T02:55:01;12.10;99.90
12557;DHT22;6344;49.932;8.308;2022-11-09T02:57:33;12.10;99.90
12557;DHT22;6344;49.932;8.308;2022-11-09T03:00:01;12.10;99.90
12557;DHT22;6344;49.932;8.308;2022-11-09T03:02:34;12.00;99.90
12557;DHT22;6344;49.932;8.308;2022-11-09T03:05:04;12.00;99.90
12557;DHT22;6344;49.932;8.308;2022-11-09T03:07:34;12.00;99.90
12557;DHT22;6344;49.932;8.308;2022-11-09T03:10:05;12.00;99.90
12557;DHT22;6344;49.932;8.308;2022-11-09T03:12:32;12.00;99.90
12557;DHT22;6344;49.932;8.308;2022-11-09T03:15:00;11.90;99.90
12557;DHT22;6344;49.932;8.308;2022-11-09T03:17:28;12.00;99.90
12557;DHT22;6344;49.932;8.308;2022-11-09T03:19:58;12.10;99.90
12557;DHT22;6344;49.932;8.308;2022-11-09T03:22:27;12.00;99.90
12557;DHT22;6344;49.932;8.308;2022-11-09T03:24:55;12.00;99.90
12557;DHT22;6344;49.932;8.308;2022-11-09T03:27:22;12.10;99.90
12557;DHT22;6344;49.932;8.308;2022-11-09T03:29:52;12.10;99.90
12557;DHT22;6344;49.932;8.308;2022-11-09T03:32:18;12.30;99.90
12557;DHT22;6344;49.932;8.308;2022-11-09T03:34:45;12.40;99.90
12557;DHT22;6344;49.932;8.308;2022-11-09T03:37:13;12.30;99.90
12557;DHT22;6344;49.932;8.308;2022-11-09T03:39:40;12.30;99.90
12557;DHT22;6344;49.932;8.308;2022-11-09T03:42:10;12.30;99.90
12557;DHT22;6344;49.932;8.308;2022-11-09T03:44:37;12.40;99.90
12557;DHT22;6344;49.932;8.308;2022-11-09T03:47:04;12.40;99.90
12557;DHT22;6344;49.932;8.308;2022-11-09T03:49:33;12.50;99.90
12557;DHT22;6344;49.932;8.308;2022-11-09T03:52:00;12.50;99.90
12557;DHT22;6344;49.932;8.308;2022-11-09T03:54:29;12.40;99.90
12557;DHT22;6344;49.932;8.308;2022-11-09T03:56:58;12.40;99.90
12557;DHT22;6344;49.932;8.308;2022-11-09T03:59:26;12.40;99.90
12557;DHT22;6344;49.932;8.308;2022-11-09T04:01:59;12.50;99.90
12557;DHT22;6344;49.932;8.308;2022-11-09T04:04:26;12.50;99.90
12557;DHT22;6344;49.932;8.308;2022-11-09T04:06:52;12.50;99.90
12557;DHT22;6344;49.932;8.308;2022-11-09T04:09:21;12.50;99.90
12557;DHT22;6344;49.932;8.308;2022-11-09T04:11:49;12.50;99.90
12557;DHT22;6344;49.932;8.308;2022-11-09T04:14:15;12.50;99.90
12557;DHT22;6344;49.932;8.308;2022-11-09T04:16:47;12.60;99.90
12557;DHT22;6344;49.932;8.308;2022-11-09T04:19:15;12.50;99.90
12557;DHT22;6344;49.932;8.308;2022-11-09T04:21:42;12.50;99.90
12557;DHT22;6344;49.932;8.308;2022-11-09T04:24:11;12.50;99.90
12557;DHT22;6344;49.932;8.308;2022-11-09T04:26:44;12.50;99.90
12557;DHT22;6344;49.932;8.308;2022-11-09T04:29:18;12.40;99.90
12557;DHT22;6344;49.932;8.308;2022-11-09T04:31:49;12.40;99.90
12557;DHT22;6344;49.932;8.308;2022-11-09T04:34:16;12.30;99.90
12557;DHT22;6344;49.932;8.308;2022-11-09T04:36:43;12.30;99.90
12557;DHT22;6344;49.932;8.308;2022-11-09T04:39:20;12.30;99.90
12557;DHT22;6344;49.932;8.308;2022-11-09T04:41:47;12.30;99.90
12557;DHT22;6344;49.932;8.308;2022-11-09T04:44:14;12.30;99.90
12557;DHT22;6344;49.932;8.308;2022-11-09T04:46:42;12.30;99.90
12557;DHT22;6344;49.932;8.308;2022-11-09T04:49:16;12.30;99.90
12557;DHT22;6344;49.932;8.308;2022-11-09T04:51:44;12.30;99.90
12557;DHT22;6344;49.932;8.308;2022-11-09T04:54:12;12.30;99.90
12557;DHT22;6344;49.932;8.308;2022-11-09T04:56:39;12.30;99.90
12557;DHT22;6344;49.932;8.308;2022-11-09T04:59:06;12.20;99.90
12557;DHT22;6344;49.932;8.308;2022-11-09T05:01:34;12.20;99.90
12557;DHT22;6344;49.932;8.308;2022-11-09T05:04:02;12.20;99.90
12557;DHT22;6344;49.932;8.308;2022-11-09T05:06:30;12.20;99.90
12557;DHT22;6344;49.932;8.308;2022-11-09T05:08:59;12.20;99.90
12557;DHT22;6344;49.932;8.308;2022-11-09T05:11:27;12.20;99.90
12557;DHT22;6344;49.932;8.308;2022-11-09T05:13:56;12.20;99.90
12557;DHT22;6344;49.932;8.308;2022-11-09T05:16:23;12.10;99.90
12557;DHT22;6344;49.932;8.308;2022-11-09T05:18:51;12.20;99.90
12557;DHT22;6344;49.932;8.308;2022-11-09T05:21:20;12.20;99.90
12557;DHT22;6344;49.932;8.308;2022-11-09T05:23:51;12.10;99.90
12557;DHT22;6344;49.932;8.308;2022-11-09T05:26:30;12.10;99.90
12557;DHT22;6344;49.932;8.308;2022-11-09T05:28:58;12.10;99.90
12557;DHT22;6344;49.932;8.308;2022-11-09T05:31:27;12.10;99.90
12557;DHT22;6344;49.932;8.308;2022-11-09T05:33:54;12.20;99.90
12557;DHT22;6344;49.932;8.308;2022-11-09T05:36:22;12.10;99.90
12557;DHT22;6344;49.932;8.308;2022-11-09T05:38:49;12.10;99.90
12557;DHT22;6344;49.932;8.308;2022-11-09T05:41:26;12.10;99.90
12557;DHT22;6344;49.932;8.308;2022-11-09T05:43:55;12.10;99.90
12557;DHT22;6344;49.932;8.308;2022-11-09T05:46:21;12.00;99.90
12557;DHT22;6344;49.932;8.308;2022-11-09T05:48:49;12.00;99.90
12557;DHT22;6344;49.932;8.308;2022-11-09T05:51:16;12.00;99.90
12557;DHT22;6344;49.932;8.308;2022-11-09T05:53:52;12.00;99.90
12557;DHT22;6344;49.932;8.308;2022-11-09T05:56:20;12.00;99.90
12557;DHT22;6344;49.932;8.308;2022-11-09T05:58:47;12.10;99.90
12557;DHT22;6344;49.932;8.308;2022-11-09T06:01:16;12.00;99.90
12557;DHT22;6344;49.932;8.308;2022-11-09T06:03:44;12.00;99.90
12557;DHT22;6344;49.932;8.308;2022-11-09T06:06:15;12.00;99.90
12557;DHT22;6344;49.932;8.308;2022-11-09T06:08:42;12.10;99.90
12557;DHT22;6344;49.932;8.308;2022-11-09T06:11:10;12.00;99.90
12557;DHT22;6344;49.932;8.308;2022-11-09T06:13:38;12.00;99.90
12557;DHT22;6344;49.932;8.308;2022-11-09T06:16:05;12.00;99.90
12557;DHT22;6344;49.932;8.308;2022-11-09T06:18:34;12.00;99.90
12557;DHT22;6344;49.932;8.308;2022-11-09T06:21:02;12.00;99.90
12557;DHT22;6344;49.932;8.308;2022-11-09T06:23:30;12.00;99.90
12557;DHT22;6344;49.932;8.308;2022-11-09T06:26:03;12.00;99.90
12557;DHT22;6344;49.932;8.308;2022-11-09T06:28:40;12.00;99.90
12557;DHT22;6344;49.932;8.308;2022-11-09T06:31:10;12.00;99.90
12557;DHT22;6344;49.932;8.308;2022-11-09T06:33:37;12.00;99.90
12557;DHT22;6344;49.932;8.308;2022-11-09T06:36:04;12.00;99.90
12557;DHT22;6344;49.932;8.308;2022-11-09T06:38:31;12.00;99.90
12557;DHT22;6344;49.932;8.308;2022-11-09T06:41:00;12.00;99.90
12557;DHT22;6344;49.932;8.308;2022-11-09T06:43:27;12.10;99.90
12557;DHT22;6344;49.932;8.308;2022-11-09T06:45:56;12.10;99.90
12557;DHT22;6344;49.932;8.308;2022-11-09T06:48:25;12.10;99.90
12557;DHT22;6344;49.932;8.308;2022-11-09T06:50:52;12.00;99.90
12557;DHT22;6344;49.932;8.308;2022-11-09T06:53:18;12.00;99.90
12557;DHT22;6344;49.932;8.308;2022-11-09T06:55:48;12.10;99.90
12557;DHT22;6344;49.932;8.308;2022-11-09T06:58:17;12.10;99.90
12557;DHT22;6344;49.932;8.308;2022-11-09T07:00:52;12.10;99.90
12557;DHT22;6344;49.932;8.308;2022-11-09T07:03:21;12.20;99.90
12557;DHT22;6344;49.932;8.308;2022-11-09T07:05:49;12.20;99.90
12557;DHT22;6344;49.932;8.308;2022-11-09T07:08:18;12.10;99.90
12557;DHT22;6344;49.932;8.308;2022-11-09T07:10:45;12.10;99.90
12557;DHT22;6344;49.932;8.308;2022-11-09T07:13:12;12.10;99.90
12557;DHT22;6344;49.932;8.308;2022-11-09T07:15:38;12.10;99.90
12557;DHT22;6344;49.932;8.308;2022-11-09T07:18:07;12.20;99.90
12557;DHT22;6344;49.932;8.308;2022-11-09T07:20:39;12.10;99.90
12557;DHT22;6344;49.932;8.308;2022-11-09T07:23:06;12.10;99.90
12557;DHT22;6344;49.932;8.308;2022-11-09T07:25:34;12.10;99.90
12557;DHT22;6344;49.932;8.308;2022-11-09T07:28:04;12.20;99.90
12557;DHT22;6344;49.932;8.308;2022-11-09T07:30:32;12.20;99.90
12557;DHT22;6344;49.932;8.308;2022-11-09T07:33:02;12.20;99.90
12557;DHT22;6344;49.932;8.308;2022-11-09T07:35:32;12.20;99.90
12557;DHT22;6344;49.932;8.308;2022-11-09T07:38:13;12.30;99.90
12557;DHT22;6344;49.932;8.308;2022-11-09T07:40:41;12.40;99.90
12557;DHT22;6344;49.932;8.308;2022-11-09T07:43:11;12.30;99.90
12557;DHT22;6344;49.932;8.308;2022-11-09T07:45:38;12.40;99.90
12557;DHT22;6344;49.932;8.308;2022-11-09T07:48:07;12.40;99.90
12557;DHT22;6344;49.932;8.308;2022-11-09T07:50:40;12.40;99.90
12557;DHT22;6344;49.932;8.308;2022-11-09T07:53:11;12.40;99.90
12557;DHT22;6344;49.932;8.308;2022-11-09T07:55:40;12.40;99.90
12557;DHT22;6344;49.932;8.308;2022-11-09T07:58:11;12.40;99.90
12557;DHT22;6344;49.932;8.308;2022-11-09T08:00:39;12.30;99.90
12557;DHT22;6344;49.932;8.308;2022-11-09T08:03:08;12.40;99.90
12557;DHT22;6344;49.932;8.308;2022-11-09T08:05:37;12.40;99.90
12557;DHT22;6344;49.932;8.308;2022-11-09T08:08:06;12.40;99.90
12557;DHT22;6344;49.932;8.308;2022-11-09T08:10:35;12.40;99.90
12557;DHT22;6344;49.932;8.308;2022-11-09T08:13:04;12.40;99.90
12557;DHT22;6344;49.932;8.308;2022-11-09T08:15:33;12.40;99.90
12557;DHT22;6344;49.932;8.308;2022-11-09T08:18:02;12.40;99.90
12557;DHT22;6344;49.932;8.308;2022-11-09T08:20:30;12.40;99.90
12557;DHT22;6344;49.932;8.308;2022-11-09T08:22:56;12.40;99.90
12557;DHT22;6344;49.932;8.308;2022-11-09T08:25:25;12.50;99.90
12557;DHT22;6344;49.932;8.308;2022-11-09T08:27:54;12.50;99.90
12557;DHT22;6344;49.932;8.308;2022-11-09T08:30:24;12.60;99.90
12557;DHT22;6344;49.932;8.308;2022-11-09T08:32:51;12.60;99.90
12557;DHT22;6344;49.932;8.308;2022-11-09T08:35:21;12.60;99.90
12557;DHT22;6344;49.932;8.308;2022-11-09T08:37:50;12.60;99.90
12557;DHT22;6344;49.932;8.308;2022-11-09T08:40:21;12.60;99.90
12557;DHT22;6344;49.932;8.308;2022-11-09T08:42:51;12.60;99.90
12557;DHT22;6344;49.932;8.308;2022-11-09T08:45:22;12.60;99.90
12557;DHT22;6344;49.932;8.308;2022-11-09T08:47:56;12.60;99.90
12557;DHT22;6344;49.932;8.308;2022-11-09T08:50:22;12.60;99.90
12557;DHT22;6344;49.932;8.308;2022-11-09T08:52:49;12.70;99.90
12557;DHT22;6344;49.932;8.308;2022-11-09T08:55:19;12.70;99.90
12557;DHT22;6344;49.932;8.308;2022-11-09T08:57:46;12.80;99.90
12557;DHT22;6344;49.932;8.308;2022-11-09T09:00:13;13.00;99.90
12557;DHT22;6344;49.932;8.308;2022-11-09T09:02:44;13.30;99.90
12557;DHT22;6344;49.932;8.308;2022-11-09T09:05:11;13.50;99.90
12557;DHT22;6344;49.932;8.308;2022-11-09T09:07:38;14.00;99.90
12557;DHT22;6344;49.932;8.308;2022-11-09T09:10:05;14.30;99.90
12557;DHT22;6344;49.932;8.308;2022-11-09T09:12:36;14.60;99.90
12557;DHT22;6344;49.932;8.308;2022-11-09T09:15:04;14.80;99.90
12557;DHT22;6344;49.932;8.308;2022-11-09T09:17:32;14.80;99.90
12557;DHT22;6344;49.932;8.308;2022-11-09T09:20:05;14.60;99.90
12557;DHT22;6344;49.932;8.308;2022-11-09T09:22:31;14.60;99.90
12557;DHT22;6344;49.932;8.308;2022-11-09T09:25:00;14.60;99.90
12557;DHT22;6344;49.932;8.308;2022-11-09T09:27:29;14.60;99.90
12557;DHT22;6344;49.932;8.308;2022-11-09T09:29:58;14.70;99.90
12557;DHT22;6344;49.932;8.308;2022-11-09T09:32:25;14.80;99.90
12557;DHT22;6344;49.932;8.308;2022-11-09T09:34:52;14.90;99.90
12557;DHT22;6344;49.932;8.308;2022-11-09T09:37:20;14.90;99.90
12557;DHT22;6344;49.932;8.308;2022-11-09T09:39:46;15.10;99.90
12557;DHT22;6344;49.932;8.308;2022-11-09T09:42:16;15.10;99.90
12557;DHT22;6344;49.932;8.308;2022-11-09T09:44:48;15.10;99.90
12557;DHT22;6344;49.932;8.308;2022-11-09T09:47:21;15.00;99.90
12557;DHT22;6344;49.932;8.308;2022-11-09T09:49:54;14.90;99.90
12557;DHT22;6344;49.932;8.308;2022-11-09T09:52:34;14.80;99.90
12557;DHT22;6344;49.932;8.308;2022-11-09T09:55:07;14.60;99.90
12557;DHT22;6344;49.932;8.308;2022-11-09T09:57:43;14.70;99.90
12557;DHT22;6344;49.932;8.308;2022-11-09T10:00:18;15.10;99.90
12557;DHT22;6344;49.932;8.308;2022-11-09T10:02:47;15.20;99.90
12557;DHT22;6344;49.932;8.308;2022-11-09T10:05:16;15.30;99.90
12557;DHT22;6344;49.932;8.308;2022-11-09T10:07:50;15.70;99.90
12557;DHT22;6344;49.932;8.308;2022-11-09T10:10:39;16.20;99.90
12557;DHT22;6344;49.932;8.308;2022-11-09T10:13:26;17.30;99.90
12557;DHT22;6344;49.932;8.308;2022-11-09T10:16:05;17.70;99.90
12557;DHT22;6344;49.932;8.308;2022-11-09T10:18:52;17.60;99.90
12557;DHT22;6344;49.932;8.308;2022-11-09T10:21:33;17.30;99.90
12557;DHT22;6344;49.932;8.308;2022-11-09T10:24:12;16.80;99.90
12557;DHT22;6344;49.932;8.308;2022-11-09T10:26:45;16.80;99.90
12557;DHT22;6344;49.932;8.308;2022-11-09T10:29:20;17.30;99.90
12557;DHT22;6344;49.932;8.308;2022-11-09T10:31:51;17.70;99.90
12557;DHT22;6344;49.932;8.308;2022-11-09T10:34:23;18.10;99.90
12557;DHT22;6344;49.932;8.308;2022-11-09T10:36:57;18.10;99.90
12557;DHT22;6344;49.932;8.308;2022-11-09T10:39:37;18.20;99.90
12557;DHT22;6344;49.932;8.308;2022-11-09T10:42:04;18.20;99.90
12557;DHT22;6344;49.932;8.308;2022-11-09T10:44:34;18.30;99.90
12557;DHT22;6344;49.932;8.308;2022-11-09T10:47:04;18.40;99.90
12557;DHT22;6344;49.932;8.308;2022-11-09T10:49:33;18.50;1.00
12557;DHT22;6344;49.932;8.308;2022-11-09T10:52:00;18.40;99.90
12557;DHT22;6344;49.932;8.308;2022-11-09T10:54:30;18.10;33.60
12557;DHT22;6344;49.932;8.308;2022-11-09T10:57:07;17.40;99.90
12557;DHT22;6344;49.932;8.308;2022-11-09T10:59:53;16.90;99.90
12557;DHT22;6344;49.932;8.308;2022-11-09T11:02:43;16.80;99.90
12557;DHT22;6344;49.932;8.308;2022-11-09T11:05:31;16.60;99.90
12557;DHT22;6344;49.932;8.308;2022-11-09T11:08:21;16.40;99.90
12557;DHT22;6344;49.932;8.308;2022-11-09T11:10:51;16.10;99.90
12557;DHT22;6344;49.932;8.308;2022-11-09T11:13:33;15.90;99.90
12557;DHT22;6344;49.932;8.308;2022-11-09T11:16:00;15.80;99.90
12557;DHT22;6344;49.932;8.308;2022-11-09T11:18:26;15.80;99.90
12557;DHT22;6344;49.932;8.308;2022-11-09T11:21:06;16.00;99.90
12557;DHT22;6344;49.932;8.308;2022-11-09T11:23:33;16.10;99.90
12557;DHT22;6344;49.932;8.308;2022-11-09T11:26:26;16.20;99.90
12557;DHT22;6344;49.932;8.308;2022-11-09T11:29:00;16.40;99.90
12557;DHT22;6344;49.932;8.308;2022-11-09T11:31:29;16.40;99.90
12557;DHT22;6344;49.932;8.308;2022-11-09T11:33:56;16.50;99.90
12557;DHT22;6344;49.932;8.308;2022-11-09T11:36:33;16.60;99.90
12557;DHT22;6344;49.932;8.308;2022-11-09T11:39:11;16.50;99.90
12557;DHT22;6344;49.932;8.308;2022-11-09T11:41:56;16.80;30.00
12557;DHT22;6344;49.932;8.308;2022-11-09T11:44:40;16.80;99.90
12557;DHT22;6344;49.932;8.308;2022-11-09T11:47:16;16.80;1.00
12557;DHT22;6344;49.932;8.308;2022-11-09T11:50:11;16.70;99.90
12557;DHT22;6344;49.932;8.308;2022-11-09T11:52:58;16.40;31.50
12557;DHT22;6344;49.932;8.308;2022-11-09T11:55:58;16.60;99.90
12557;DHT22;6344;49.932;8.308;2022-11-09T11:58:43;16.70;99.90
12557;DHT22;6344;49.932;8.308;2022-11-09T12:01:22;16.60;1.00
12557;DHT22;6344;49.932;8.308;2022-11-09T12:04:02;16.70;99.90
12557;DHT22;6344;49.932;8.308;2022-11-09T12:06:43;16.60;99.90
12557;DHT22;6344;49.932;8.308;2022-11-09T12:09:32;17.00;99.90
12557;DHT22;6344;49.932;8.308;2022-11-09T12:12:14;17.20;99.90
12557;DHT22;6344;49.932;8.308;2022-11-09T12:14:53;17.50;1.00
12557;DHT22;6344;49.932;8.308;2022-11-09T12:17:31;17.80;1.00
12557;DHT22;6344;49.932;8.308;2022-11-09T12:23:11;17.30;1.00
12557;DHT22;6344;49.932;8.308;2022-11-09T12:25:45;17.20;99.90
12557;DHT22;6344;49.932;8.308;2022-11-09T12:28:21;17.30;1.00
12557;DHT22;6344;49.932;8.308;2022-11-09T12:30:59;17.40;1.00
12557;DHT22;6344;49.932;8.308;2022-11-09T12:33:39;17.20;99.90
12557;DHT22;6344;49.932;8.308;2022-11-09T12:36:11;17.10;1.00
12557;DHT22;6344;49.932;8.308;2022-11-09T12:38:56;17.00;99.90
12557;DHT22;6344;49.932;8.308;2022-11-09T12:41:29;16.80;1.00
12557;DHT22;6344;49.932;8.308;2022-11-09T12:44:02;16.70;99.90
12557;DHT22;6344;49.932;8.308;2022-11-09T12:46:37;16.40;99.90
12557;DHT22;6344;49.932;8.308;2022-11-09T12:49:04;16.30;1.00
12557;DHT22;6344;49.932;8.308;2022-11-09T12:51:34;16.30;1.00
12557;DHT22;6344;49.932;8.308;2022-11-09T12:54:04;16.30;99.90
12557;DHT22;6344;49.932;8.308;2022-11-09T12:56:41;16.30;99.90
12557;DHT22;6344;49.932;8.308;2022-11-09T12:59:30;16.30;1.00
12557;DHT22;6344;49.932;8.308;2022-11-09T13:02:00;16.30;99.90
12557;DHT22;6344;49.932;8.308;2022-11-09T13:04:28;16.40;99.90
12557;DHT22;6344;49.932;8.308;2022-11-09T13:07:16;16.40;1.00
12557;DHT22;6344;49.932;8.308;2022-11-09T13:09:44;16.40;1.00
12557;DHT22;6344;49.932;8.308;2022-11-09T13:12:25;16.50;1.00
12557;DHT22;6344;49.932;8.308;2022-11-09T13:14:55;16.50;99.90
12557;DHT22;6344;49.932;8.308;2022-11-09T13:17:52;16.30;47.30
12557;DHT22;6344;49.932;8.308;2022-11-09T13:20:39;16.50;1.00
12557;DHT22;6344;49.932;8.308;2022-11-09T13:23:26;16.60;99.90
12557;DHT22;6344;49.932;8.308;2022-11-09T13:25:53;16.50;1.00
12557;DHT22;6344;49.932;8.308;2022-11-09T13:28:42;16.60;1.00
12557;DHT22;6344;49.932;8.308;2022-11-09T13:31:13;16.60;61.60
12557;DHT22;6344;49.932;8.308;2022-11-09T13:37:35;16.20;1.00
12557;DHT22;6344;49.932;8.308;2022-11-09T13:43:14;16.10;9.20
12557;DHT22;6344;49.932;8.308;2022-11-09T13:45:44;16.00;1.00
12557;DHT22;6344;49.932;8.308;2022-11-09T13:48:37;16.00;1.00
12557;DHT22;6344;49.932;8.308;2022-11-09T13:51:07;16.00;99.90
12557;DHT22;6344;49.932;8.308;2022-11-09T13:53:53;15.90;99.90
12557;DHT22;6344;49.932;8.308;2022-11-09T13:56:34;15.80;99.90
12557;DHT22;6344;49.932;8.308;2022-11-09T13:59:08;15.70;99.90
12557;DHT22;6344;49.932;8.308;2022-11-09T14:01:48;15.60;99.90
12557;DHT22;6344;49.932;8.308;2022-11-09T14:04:24;15.50;1.00
12557;DHT22;6344;49.932;8.308;2022-11-09T14:07:09;15.30;99.90
12557;DHT22;6344;49.932;8.308;2022-11-09T14:09:50;15.00;99.90
12557;DHT22;6344;49.932;8.308;2022-11-09T14:12:31;14.50;99.90
12557;DHT22;6344;49.932;8.308;2022-11-09T14:15:15;14.30;99.90
12557;DHT22;6344;49.932;8.308;2022-11-09T14:17:55;14.20;99.90
12557;DHT22;6344;49.932;8.308;2022-11-09T14:20:37;14.00;99.90
12557;DHT22;6344;49.932;8.308;2022-11-09T14:23:14;14.00;99.90
12557;DHT22;6344;49.932;8.308;2022-11-09T14:25:45;14.00;99.90
12557;DHT22;6344;49.932;8.308;2022-11-09T14:28:20;13.90;99.90
12557;DHT22;6344;49.932;8.308;2022-11-09T14:30:48;14.00;99.90
12557;DHT22;6344;49.932;8.308;2022-11-09T14:33:20;13.90;99.90
12557;DHT22;6344;49.932;8.308;2022-11-09T14:35:51;13.90;99.90
12557;DHT22;6344;49.932;8.308;2022-11-09T14:38:24;13.90;99.90
12557;DHT22;6344;49.932;8.308;2022-11-09T14:40:53;13.90;99.90
12557;DHT22;6344;49.932;8.308;2022-11-09T14:43:24;13.90;99.90
12557;DHT22;6344;49.932;8.308;2022-11-09T14:45:56;13.90;99.90
12557;DHT22;6344;49.932;8.308;2022-11-09T14:48:24;13.90;99.90
12557;DHT22;6344;49.932;8.308;2022-11-09T14:50:52;13.80;99.90
12557;DHT22;6344;49.932;8.308;2022-11-09T14:53:22;13.80;99.90
12557;DHT22;6344;49.932;8.308;2022-11-09T14:55:53;13.80;99.90
12557;DHT22;6344;49.932;8.308;2022-11-09T14:58:21;13.80;99.90
12557;DHT22;6344;49.932;8.308;2022-11-09T15:01:06;13.80;99.90
12557;DHT22;6344;49.932;8.308;2022-11-09T15:03:33;13.90;99.90
12557;DHT22;6344;49.932;8.308;2022-11-09T15:06:12;13.90;99.90
12557;DHT22;6344;49.932;8.308;2022-11-09T15:08:49;13.90;99.90
12557;DHT22;6344;49.932;8.308;2022-11-09T15:11:19;13.90;99.90
12557;DHT22;6344;49.932;8.308;2022-11-09T15:13:48;13.90;99.90
12557;DHT22;6344;49.932;8.308;2022-11-09T15:16:20;14.00;99.90
12557;DHT22;6344;49.932;8.308;2022-11-09T15:18:47;14.00;99.90
12557;DHT22;6344;49.932;8.308;2022-11-09T15:21:17;13.90;99.90
12557;DHT22;6344;49.932;8.308;2022-11-09T15:23:45;13.80;99.90
12557;DHT22;6344;49.932;8.308;2022-11-09T15:26:33;13.70;99.90
12557;DHT22;6344;49.932;8.308;2022-11-09T15:29:01;13.80;99.90
12557;DHT22;6344;49.932;8.308;2022-11-09T15:31:32;13.70;99.90
12557;DHT22;6344;49.932;8.308;2022-11-09T15:34:00;13.60;99.90
12557;DHT22;6344;49.932;8.308;2022-11-09T15:36:29;13.60;99.90
12557;DHT22;6344;49.932;8.308;2022-11-09T15:39:08;13.50;99.90
12557;DHT22;6344;49.932;8.308;2022-11-09T15:41:39;13.50;99.90
12557;DHT22;6344;49.932;8.308;2022-11-09T15:44:08;13.50;99.90
12557;DHT22;6344;49.932;8.308;2022-11-09T15:46:42;13.40;99.90
12557;DHT22;6344;49.932;8.308;2022-11-09T15:49:16;13.30;99.90
12557;DHT22;6344;49.932;8.308;2022-11-09T15:51:46;13.40;99.90
12557;DHT22;6344;49.932;8.308;2022-11-09T15:54:15;13.30;99.90
12557;DHT22;6344;49.932;8.308;2022-11-09T15:56:45;13.30;99.90
12557;DHT22;6344;49.932;8.308;2022-11-09T15:59:21;13.20;99.90
12557;DHT22;6344;49.932;8.308;2022-11-09T16:01:51;13.10;99.90
12557;DHT22;6344;49.932;8.308;2022-11-09T16:04:20;13.10;99.90
12557;DHT22;6344;49.932;8.308;2022-11-09T16:06:46;12.90;99.90
12557;DHT22;6344;49.932;8.308;2022-11-09T16:09:13;12.80;99.90
12557;DHT22;6344;49.932;8.308;2022-11-09T16:11:46;12.70;99.90
12557;DHT22;6344;49.932;8.308;2022-11-09T16:14:18;12.60;99.90
12557;DHT22;6344;49.932;8.308;2022-11-09T16:16:48;12.60;99.90
12557;DHT22;6344;49.932;8.308;2022-11-09T16:19:17;12.50;99.90
12557;DHT22;6344;49.932;8.308;2022-11-09T16:21:46;12.50;99.90
12557;DHT22;6344;49.932;8.308;2022-11-09T16:24:14;12.40;99.90